Metcalfe, Mississippi
Current Conditions -  °F | °C
As of 4:28 AM on Monday 26 Jan 2015 (Local Time) from KGLH Reporting Station
Overcast Overcast  
Wind Chill: 38°   Ceiling: 2900
Heat Index: 44°   Visibility: 10mi
Dew Point: 35°   Wind: 13mph
Humidity: 71%   Direction: 340°NNW
Pressure: 30.06"   Gusts: NA
Location:  33.45°N, 91.01°W
Report Text: KGLH 261028Z AUTO 34011KT 10SM OVC029 07/02 A3006 RMK AO2 T00670017
Loading
Personal Weather Stations






























Interactive Weather Map New forecast layout! Learn more

10-Day Weather Forecast

Advertisements
Track Severe Weather on mobile